Logo AVAMET
Benvolgut visitant, si us plau, ingressa Recuperar contrasenya
AVAMET paisatges

Inforatge Sueca el Perelló

Dades diàries. Acumulats / Últims 30 dies disponibles

Data Temperatura (°C) Humitat rel. (%) Pressió rel. (hPa) Vent (km/h) Precipitació
Mínima Mitjana Màxima Amplitud
tèrmica
Mínima Mitjana Màxima Mínima Mitjana Màxima Predom. Mitjana Ràfega
màxima
Total
(mm)
Índex-n
Mínima Mitjana Màxima Mínima Mitjana Màxima n
0 a 1
P0 max
mm 5'
Dades mensuals acumulades fins l'últim dia disponible
03/2020 5,2 10,3 16,5 13,7 11,6 17,2 22,6 17,4 31 77 94 1.000 1.018 1.029   14,8 104,6 78,2
Dades anuals acumulades fins l'últim dia disponible
2020 4,5 9,4 16,5 12,9 11,0 17,0 26,2 21,7 31 80 94 1.000 1.023 1.035   12,6 111,0 213,0
Últims 30 dies disponibles
31-03-2020 7,4     10,3     14,0 6,6 82 90 93 1.010 1.011 1.014 SO 15,0 43,5 10,2
30-03-2020 9,2     13,1     16,3 7,1 62 74 89 1.013 1.014 1.015 NE 15,8 48,3 1,0
29-03-2020 7,3     13,9     21,5 14,2 40 72 88 1.013 1.016 1.020 WSW 13,5 37,0 0,0
28-03-2020 5,2     10,9     16,1 10,9 50 76 94 1.017 1.019 1.020 WSW 5,3 19,3 0,2
27-03-2020 7,9     9,9     11,6 3,7 73 84 93 1.013 1.015 1.017 NNE 10,0 43,5 2,4
26-03-2020 7,1     11,0     16,4 9,3 44 76 94 1.008 1.011 1.015 NNE 9,3 51,5 0,2
25-03-2020 8,6     10,3     13,3 4,7 73 86 94 1.015 1.017 1.019 NNE 9,2 51,5 19,6 0,38 0,90
24-03-2020 13,3     14,1     14,8 1,5 68 81 91 1.016 1.017 1.019 NNE 30,1 74,0 0,4
23-03-2020 12,5     14,2     15,7 3,2 85 91 94 1.015 1.016 1.018 NNE 14,3 43,5 1,4
22-03-2020 10,3     12,3     14,3 4,0 82 90 94 1.012 1.013 1.016 NE 9,2 33,8 13,2 0,38 0,80
21-03-2020 10,8     13,4     14,3 3,5 81 86 92 1.013 1.015 1.018 NNE 8,9 29,0 9,2
20-03-2020 13,6     14,1     14,7 1,1 80 86 88 1.018 1.019 1.021 NNE 14,5 37,0 0,6
19-03-2020 12,2     14,1     15,5 3,3 85 88 92 1.021 1.023 1.026 NNE 10,8 35,4 0,0
18-03-2020 13,9     14,5     16,0 2,1 75 86 91 1.026 1.027 1.029 NNE 13,5 38,6 0,0
17-03-2020 8,7     11,8     14,8 6,1 91 93 94 1.020 1.025 1.029 NNE 11,6 48,3 18,0 0,58 1,90
16-03-2020 8,8     12,0     15,5 6,7 79 87 91 1.011 1.014 1.020 ENE 14,3 45,1 1,6
15-03-2020 12,3     14,5     16,6 4,3 81 88 92 1.014 1.018 1.021 E 10,1 41,8 0,0
14-03-2020 9,5     13,6     16,5 7,0 78 89 93 1.019 1.020 1.022 W 7,9 25,7 0,0
13-03-2020 11,2     14,3     16,4 5,2 77 88 94 1.018 1.020 1.022 NNE 6,0 24,1 0,0
12-03-2020 10,2     13,6     16,7 6,5 77 89 94 1.017 1.020 1.023 N 6,0 22,5 0,0
11-03-2020 8,8     14,4     21,1 12,3 51 83 93 1.022 1.023 1.024 ENE 6,1 25,7 0,0
10-03-2020 8,3     14,2     18,6 10,3 57 72 90 1.022 1.024 1.027 E 8,2 40,2 0,0
09-03-2020 10,2     15,4     20,6 10,4 40 63 86 1.020 1.022 1.024 SW 7,6 32,2 0,0
08-03-2020 7,8     13,3     20,1 12,3 38 71 87 1.020 1.023 1.025 W 9,7 37,0 0,0
07-03-2020 9,1     13,1     18,8 9,7 39 55 76 1.021 1.023 1.025 W 19,0 62,8 0,0
06-03-2020 11,2     14,1     18,3 7,1 31 52 68 1.013 1.015 1.022 WSW 27,2 66,0 0,0
05-03-2020 13,6     17,3     21,8 8,2 43 61 77 1.008 1.012 1.017 WSW 27,2 74,0 0,0
04-03-2020 16,5     18,9     22,6 6,1 50 64 74 1.016 1.017 1.019 WSW 26,4 53,1 0,0
03-03-2020 9,4     14,6     19,7 10,3 49 60 69 1.012 1.016 1.019 W 30,9 80,5 0,0
02-03-2020 10,7     16,7     20,4 9,7 42 54 63 1.000 1.007 1.018 W 39,4 104,6 0,2
Últims 13 mesos disponibles
02/2020 6,2 10,0 14,7 14,0 14,4 18,9 26,2 20,0 60 80 91 1.014 1.026 1.033 NNW 9,9 53,1 2,4
01/2020 4,5 8,1 13,9 11,1 11,0 15,1 19,6 15,1 68 82 93 1.016 1.026 1.033 WSW 12,9 111,0 132,4
12/2019 6,4 11,1 16,3 13,8 13,1 16,9 23,8 17,4 59 77 91 1.002 1.019 1.033 W 16,7 107,8 103,2
11/2019 6,8 12,0 20,8 15,1 14,8 18,9 27,2 20,4 55 66 84 999 1.011 1.019 W 18,5 78,9 6,6
10/2019 11,2 15,3 20,7 19,5 18,4 24,2 33,8 22,6 54 77 89 1.008 1.017 1.022 W 9,3 54,7 38,4
09/2019 14,6 19,4 24,8 23,2 23,1 26,6 32,7 18,1 57 80 89 1.010 1.017 1.024 SSE 11,5 90,7 55,4
08/2019 17,6 21,8 26,4 25,5 26,7 28,8 36,8 19,2 67 81 87 1.010 1.016 1.020 S 9,9 79,6 5,2
07/2019 19,8 21,9 25,1 25,7 26,7 28,6 33,5 13,7 63 80 88 1.005 1.014 1.021 SSE 10,1 53,7 3,8
06/2019 12,9 18,1 22,4 21,6 20,1 24,8 30,4 17,5 54 78 87 1.009 1.015 1.022 SSE 10,9 64,8 0,8
05/2019 7,9 13,9 20,3 18,0 17,3 21,3 32,7 24,8 53 76 87 1.005 1.015 1.024 SSE 11,4 66,7 5,0
04/2019 6,8 10,7 14,6 14,8 15,4 18,9 29,3 22,5 52 73 94 1.000 1.014 1.025 SE 14,6 77,8 41,6
03/2019 4,2 8,1 13,5 13,3 13,2 18,1 27,7 23,5 52 71 87 1.012 1.023 1.030 S 10,3 61,1 12,8
02/2019 3,4 7,0 11,0 11,4 11,8 16,3 21,3 17,9 45 74 88 995 1.025 1.034 SSO 11,4 82,0 0,8
Tots els anys disponibles
2019 2,4 13,9 26,4 17,8 11,8 21,6 36,8 34,4 45 75 94 995 1.017 1.034 SSE 12,2 107,8 274,6
2018 1,2 14,1 26,1 17,8 8,3 21,5 35,2 34,0 46 76 94 993 1.016 1.035 S 12,0 98,2 769,4
2017 2,2 14,8 25,8 18,7 11,1 22,3 35,3 33,1 48 77 93 998 1.019 1.036 S 6,5 88,9 175,2
Temperatura (°C)
Humitat relativa (%)
Velocitat del vent i ràfega màxima (km/h)
Direcció del vent (°)
Pressió (hPa)
Precipitació (mm)
Nota sobre les dades: s'avisa a l'usuari de la provisionalitat i no oficialitat d'aquestes dades
Logo AVAMET blanc
Web allotjada a Sollutia
Llicència de Creative CommonsLa web d'AVAMET i els seus continguts estan subjectes a una llicència de
Reconeixement - No Comercial - Compartir igual
Últimes estacions:  Altea - Com. Regants (Soci), Almoines (Inforatge), Beniparrell (Inforatge), Albal (Inforatge), Almussafes - Parc Industrial (Inforatge), La Vilavella (Soci), la Serratella (soci) - - -